Terminal Aerodrome Forecast
Issued by NWS Louisville, KY

Home | Current Version | Previous Version | Text Only | Print | Product List | Glossary On
Versions: 1 2 3 4 5 6 7 8 9 10 11 12 13
000
FTUS43 KLMK 301700
TAFBWG
TAF
KBWG 301720Z 3018/3118 VRB03KT P6SM SCT200
     FM311000 00000KT P6SM VCSH BKN050
     FM311500 33007KT P6SM VCSH BKN025=

USA.gov is the U.S. government's official web portal to all federal, state and local government web resources and services.